Tumacacori, AZ (85640)

9:35 AM MST on March 24, 2017 (GMT -0700)
TrailsHead at Barrio de Tubac | | Change Station

Elev 3222 ft 31.60 °N, 111.05 °W | Updated 9 seconds ago

Clear
Clear
60.7 °F
Feels Like 60.7 °F
N
2.8
Wind Variable Wind from NNW
Gusts 4.0 mph

Today
High -- | Low -- °F
--% Chance of Precip.
Yesterday
High -- | Low -- °F
Precip. -- in
Pressure 30.17 in
Visibility 10.0 miles
Clouds Clear
Dew Point 31 °F
Humidity 32%
Rainfall 0.00 in
Snow Depth Not available.
6:22 AM 6:38 PM
Waning Crescent, 14% visible
METAR KOLS 241554Z AUTO 24005KT 10SM CLR 11/M06 A3024 RMK AO2 SLP217 T01111056
Pressure 30.17 in
Visibility 10.0 miles
Clouds Clear
Dew Point 31 °F
Humidity 32%
Rainfall 0.00 in
Snow Depth Not available.
6:22 AM 6:38 PM
Waning Crescent, 14% visible
METAR KOLS 241554Z AUTO 24005KT 10SM CLR 11/M06 A3024 RMK AO2 SLP217 T01111056

Get Severe Weather Alerts

Thanks for signing up!

Be on the lookout for a verification email in your inbox.

You'll start receiving the daily forecast at 8 AM.

×

10-Day Weather Forecast

Almanac

Astronomy

Mar. 24, 2017 Rise Set
Actual Time
Civil Twilight
Nautical Twilight
Astronomical Twilight
Moon
Length of Visible Light
Length of Day
Tomorrow will be .
, % of the Moon is Illuminated

Today's Extremes

State Highs State Lows

Community

WunderPhotos

Upload Photos

1,962,540 photos uploaded!

WunderBlog® & News

Nearby

Air Quality

  Air Quality AQ Index Pollutant
Not available.

Snow Depth

Station Depth Elevation

Earthquake Activity

City Distance Mag. Time & Date
Minimum magnitude displayed is 2.5.

Earthquake Activity

City Distance Mag. Time & Date
Minimum magnitude displayed is 2.5.

Coastal Water Temperatures

Place Temperature

Stations

Nearby Weather Stations

Station Location Temp. Windchill Dew Point Humidity Wind Precip. Elev Updated Type
                   

Watches & Warnings

There are currently no watches in effect.